createdAt,value
2022-09-12T00:01:50.854Z,13.39
2022-09-12T00:04:19.952Z,13.33
2022-09-12T00:06:48.543Z,12.18
2022-09-12T00:09:17.263Z,12.97
2022-09-12T00:11:50.017Z,13.18
2022-09-12T00:14:20.722Z,13.19
2022-09-12T00:16:49.411Z,13.16
2022-09-12T00:19:18.832Z,12.18
2022-09-12T00:21:47.501Z,13.25
2022-09-12T00:24:16.120Z,12.97
2022-09-12T00:26:44.852Z,13.02
2022-09-12T00:29:21.291Z,12.91
2022-09-12T00:31:50.534Z,13.01
2022-09-12T00:34:21.144Z,13.16
2022-09-12T00:36:53.063Z,11.77
2022-09-12T00:39:23.911Z,12.90
2022-09-12T00:41:52.620Z,12.98
2022-09-12T00:44:47.908Z,13.01
2022-09-12T00:47:28.354Z,12.95
2022-09-12T00:50:05.312Z,13.05
2022-09-12T00:52:44.216Z,13.09
2022-09-12T00:55:18.100Z,13.16
2022-09-12T00:57:54.398Z,13.17
2022-09-12T01:00:27.864Z,13.16
2022-09-12T01:03:02.208Z,12.26
2022-09-12T01:05:35.057Z,12.82
2022-09-12T01:08:06.541Z,13.12
2022-09-12T01:10:38.935Z,12.87
2022-09-12T01:13:10.464Z,12.83
2022-09-12T01:15:42.352Z,12.99
2022-09-12T01:18:26.120Z,12.76
2022-09-12T01:21:26.676Z,12.58
2022-09-12T01:24:59.761Z,12.81
2022-09-12T01:28:03.585Z,12.74
2022-09-12T01:31:02.570Z,12.49
2022-09-12T01:33:46.557Z,12.68
2022-09-12T01:36:39.704Z,12.38
2022-09-12T01:39:21.992Z,12.64
2022-09-12T01:42:01.756Z,12.73
2022-09-12T01:44:41.450Z,12.81
2022-09-12T01:47:20.403Z,12.80
2022-09-12T01:49:59.802Z,12.89
2022-09-12T01:52:39.604Z,12.91
2022-09-12T01:55:16.177Z,12.89
2022-09-12T01:57:51.409Z,12.71
2022-09-12T02:00:21.122Z,12.87
2022-09-12T02:03:01.249Z,12.74
2022-09-12T02:05:35.820Z,12.63
2022-09-12T02:08:11.642Z,12.69
2022-09-12T02:10:48.941Z,12.62
2022-09-12T02:13:24.907Z,12.56
2022-09-12T02:16:02.074Z,12.52
2022-09-12T02:18:38.374Z,12.46
2022-09-12T02:21:08.878Z,12.15
2022-09-12T02:23:47.432Z,12.39
2022-09-12T02:26:25.100Z,11.99
2022-09-12T02:29:04.548Z,12.31
2022-09-12T02:31:46.146Z,12.31
2022-09-12T02:34:33.528Z,11.64
2022-09-12T02:37:14.169Z,12.22
2022-09-12T02:39:47.572Z,12.21
2022-09-12T02:42:16.393Z,12.40
2022-09-12T02:44:44.954Z,12.41
2022-09-12T02:47:29.844Z,12.54
2022-09-12T02:50:08.869Z,11.76
2022-09-12T02:52:40.023Z,12.79
2022-09-12T02:55:11.481Z,12.84
2022-09-12T02:57:40.508Z,11.57
2022-09-12T03:00:11.357Z,11.90
2022-09-12T03:03:04.345Z,12.50
2022-09-12T03:05:44.297Z,13.13
2022-09-12T03:08:56.620Z,12.82
2022-09-12T03:11:52.265Z,13.31
2022-09-12T03:14:52.543Z,13.38
2022-09-12T03:17:34.540Z,13.25
2022-09-12T03:20:12.020Z,13.47
2022-09-12T03:22:54.851Z,13.54
2022-09-12T03:25:32.181Z,12.98
2022-09-12T03:28:08.163Z,13.53
2022-09-12T03:30:41.779Z,12.65
2022-09-12T03:33:14.031Z,13.58
2022-09-12T03:35:43.223Z,12.99
2022-09-12T03:38:13.553Z,13.73
2022-09-12T03:40:42.897Z,12.42
2022-09-12T03:43:12.163Z,12.61
2022-09-12T03:45:40.908Z,13.73
2022-09-12T03:48:09.590Z,13.47
2022-09-12T03:50:38.474Z,13.62
2022-09-12T03:53:08.349Z,13.38
2022-09-12T03:55:40.899Z,13.26
2022-09-12T03:58:09.842Z,13.80
2022-09-12T04:00:41.159Z,13.83
2022-09-12T04:03:10.552Z,13.86
2022-09-12T04:05:39.163Z,13.87
2022-09-12T04:08:07.836Z,13.88
2022-09-12T04:10:37.811Z,13.33
2022-09-12T04:13:06.449Z,13.82
2022-09-12T04:15:35.055Z,13.30
2022-09-12T04:18:06.060Z,13.11
2022-09-12T04:20:35.420Z,13.84
2022-09-12T04:23:04.053Z,13.85
2022-09-12T04:25:33.037Z,13.86
2022-09-12T04:28:03.722Z,13.67
2022-09-12T04:30:32.405Z,13.49
2022-09-12T04:33:03.009Z,13.84
2022-09-12T04:35:37.297Z,12.94
2022-09-12T04:38:05.961Z,12.75
2022-09-12T04:40:37.874Z,13.86
2022-09-12T04:43:13.743Z,13.88
2022-09-12T04:45:43.410Z,13.88
2022-09-12T04:48:12.291Z,13.76
2022-09-12T04:50:43.455Z,13.76
2022-09-12T04:53:13.735Z,13.34
2022-09-12T04:55:51.375Z,13.97
2022-09-12T04:58:29.181Z,12.76
2022-09-12T05:01:02.248Z,13.34
2022-09-12T05:03:31.202Z,13.55
2022-09-12T05:05:59.901Z,12.56
2022-09-12T05:08:28.587Z,12.92
2022-09-12T05:10:57.268Z,14.13
2022-09-12T05:13:29.575Z,14.18
2022-09-12T05:16:00.122Z,12.88
2022-09-12T05:18:34.429Z,13.54
2022-09-12T05:21:05.648Z,13.64
2022-09-12T05:23:43.227Z,13.69
2022-09-12T05:26:20.598Z,14.33
2022-09-12T05:28:54.250Z,14.36
2022-09-12T05:31:25.636Z,14.33
2022-09-12T05:33:57.177Z,14.18
2022-09-12T05:36:30.761Z,13.85
2022-09-12T05:39:01.139Z,14.18
2022-09-12T05:41:33.664Z,14.34
2022-09-12T05:44:09.216Z,13.56
2022-09-12T05:46:42.969Z,12.72
2022-09-12T05:49:14.735Z,13.90
2022-09-12T05:51:48.894Z,13.95
2022-09-12T05:54:20.879Z,14.56
2022-09-12T05:56:52.373Z,14.61
2022-09-12T05:59:24.150Z,14.85
2022-09-12T06:01:52.837Z,14.91
2022-09-12T06:04:21.699Z,14.90
2022-09-12T06:06:52.003Z,14.37
2022-09-12T06:09:20.923Z,15.19
2022-09-12T06:11:49.604Z,14.01
2022-09-12T06:14:19.636Z,15.15
2022-09-12T06:16:50.707Z,15.49
2022-09-12T06:19:22.060Z,15.03
2022-09-12T06:21:52.920Z,15.55
2022-09-12T06:24:24.238Z,16.01
2022-09-12T06:26:55.139Z,15.06
2022-09-12T06:29:24.176Z,16.10
2022-09-12T06:31:54.409Z,16.48
2022-09-12T06:34:28.206Z,15.35
2022-09-12T06:37:01.121Z,15.54
2022-09-12T06:39:31.645Z,16.75
2022-09-12T06:42:07.352Z,16.84
2022-09-12T06:44:41.407Z,16.85
2022-09-12T06:47:25.366Z,15.31
2022-09-12T06:50:03.035Z,16.74
2022-09-12T06:52:34.598Z,17.37
2022-09-12T06:55:15.144Z,16.34
2022-09-12T07:01:42.651Z,16.94
2022-09-12T07:04:19.775Z,15.87
2022-09-12T07:06:51.020Z,16.12
2022-09-12T07:09:25.752Z,17.86
2022-09-12T07:17:18.690Z,16.52
2022-09-12T07:19:52.173Z,16.73
2022-09-12T07:22:21.494Z,18.54
2022-09-12T07:24:53.636Z,18.68
2022-09-12T07:27:32.503Z,17.23
2022-09-12T07:30:04.669Z,18.52
2022-09-12T07:32:43.566Z,17.63
2022-09-12T07:35:37.929Z,17.63
2022-09-12T07:38:19.509Z,17.82
2022-09-12T07:40:51.713Z,18.25
2022-09-12T07:43:21.188Z,17.77
2022-09-12T07:46:06.226Z,17.70
2022-09-12T07:48:37.917Z,18.80
2022-09-12T07:51:11.515Z,19.22
2022-09-12T07:53:46.098Z,18.48
2022-09-12T07:56:29.726Z,17.81
2022-09-12T07:59:00.389Z,18.98
2022-09-12T08:01:31.313Z,17.78
2022-09-12T08:04:09.143Z,17.35
2022-09-12T08:06:45.349Z,17.73
2022-09-12T08:09:21.778Z,18.35
2022-09-12T08:11:51.100Z,19.17
2022-09-12T08:14:23.024Z,17.59
2022-09-12T08:16:59.631Z,17.82
2022-09-12T08:19:36.338Z,17.10
2022-09-12T08:22:07.367Z,16.42
2022-09-12T08:24:37.776Z,16.69
2022-09-12T08:27:07.904Z,15.77
2022-09-12T08:29:50.649Z,15.40
2022-09-12T08:32:22.708Z,16.30
2022-09-12T08:34:59.646Z,15.39
2022-09-12T08:37:38.094Z,16.37
2022-09-12T08:40:16.530Z,15.44
2022-09-12T08:43:12.734Z,16.04
2022-09-12T08:46:02.391Z,16.44
2022-09-12T08:48:34.356Z,15.53
2022-09-12T08:51:10.810Z,16.64
2022-09-12T08:54:02.527Z,15.73
2022-09-12T08:56:39.426Z,15.79
2022-09-12T08:59:10.904Z,16.12
2022-09-12T09:01:45.661Z,15.15
2022-09-12T09:04:58.647Z,15.96
2022-09-12T09:08:16.458Z,15.88
2022-09-12T09:10:59.196Z,16.05
2022-09-12T09:14:07.218Z,16.43
2022-09-12T09:16:45.436Z,15.61
2022-09-12T09:19:23.074Z,17.24
2022-09-12T09:22:02.877Z,16.69
2022-09-12T09:24:49.132Z,17.11
2022-09-12T09:27:42.525Z,17.62
2022-09-12T09:30:23.575Z,17.88
2022-09-12T09:32:59.658Z,15.72
2022-09-12T09:35:45.796Z,15.97
2022-09-12T09:38:31.644Z,15.91
2022-09-12T09:41:38.475Z,16.15
2022-09-12T09:44:18.424Z,17.08
2022-09-12T09:46:47.688Z,17.94
2022-09-12T09:49:35.635Z,16.65
2022-09-12T09:52:07.267Z,18.48
2022-09-12T09:54:47.705Z,18.14
2022-09-12T09:57:45.420Z,18.69
2022-09-12T10:00:42.868Z,18.09
2022-09-12T10:03:39.676Z,17.71
2022-09-12T10:06:28.562Z,17.85
2022-09-12T10:09:27.426Z,19.22
2022-09-12T10:12:09.618Z,19.45
2022-09-12T10:14:41.753Z,17.58
2022-09-12T10:17:39.401Z,17.85
2022-09-12T10:20:34.410Z,17.41
2022-09-12T10:23:25.373Z,18.44
2022-09-12T10:26:14.688Z,16.90
2022-09-12T10:28:50.362Z,16.44
2022-09-12T10:31:31.292Z,17.56
2022-09-12T10:34:02.835Z,16.82
2022-09-12T10:36:39.862Z,16.70
2022-09-12T10:39:20.998Z,17.76
2022-09-12T10:41:58.309Z,17.46
2022-09-12T10:44:31.034Z,17.09
2022-09-12T10:47:21.423Z,15.83
2022-09-12T10:49:51.691Z,16.60
2022-09-12T10:52:28.786Z,16.88
2022-09-12T10:55:03.548Z,16.06
2022-09-12T10:58:10.432Z,16.93
2022-09-12T11:00:52.004Z,16.45
2022-09-12T11:03:34.042Z,16.20
2022-09-12T11:06:12.225Z,16.33
2022-09-12T11:08:57.476Z,18.01
2022-09-12T11:11:51.211Z,16.37
2022-09-12T11:14:42.544Z,16.59
2022-09-12T11:17:42.211Z,18.01
2022-09-12T11:20:52.798Z,18.51
2022-09-12T11:24:05.943Z,18.80
2022-09-12T11:27:05.248Z,18.97
2022-09-12T11:29:53.078Z,19.27
2022-09-12T11:33:01.809Z,19.38
2022-09-12T11:35:33.382Z,17.49
2022-09-12T11:38:59.709Z,19.76
2022-09-12T11:41:34.030Z,19.96
2022-09-12T11:44:16.954Z,20.07
2022-09-12T11:46:54.062Z,19.83
2022-09-12T11:49:41.777Z,19.75
2022-09-12T11:52:18.706Z,20.51
2022-09-12T11:55:02.175Z,20.96
2022-09-12T11:57:38.495Z,20.62
2022-09-12T12:00:17.812Z,21.52
2022-09-12T12:03:07.751Z,20.69
2022-09-12T12:05:47.593Z,19.70
2022-09-12T12:08:17.127Z,20.85
2022-09-12T12:10:56.421Z,20.29
2022-09-12T12:13:33.755Z,19.40
2022-09-12T12:16:09.527Z,19.05
2022-09-12T12:18:41.314Z,19.53
2022-09-12T12:21:41.655Z,19.19
2022-09-12T12:24:19.121Z,19.53
2022-09-12T12:27:02.929Z,19.89
2022-09-12T12:29:44.607Z,19.21
2022-09-12T12:32:30.670Z,18.92
2022-09-12T12:35:40.720Z,20.04
2022-09-12T12:38:31.871Z,18.56
2022-09-12T12:41:45.472Z,20.26
2022-09-12T12:44:52.662Z,20.24
2022-09-12T12:47:26.569Z,20.48
2022-09-12T12:50:02.698Z,20.75
2022-09-12T12:52:43.878Z,19.88
2022-09-12T12:55:31.383Z,20.12
2022-09-12T12:58:10.110Z,20.73
2022-09-12T13:00:50.255Z,20.89
2022-09-12T13:03:32.221Z,19.97
2022-09-12T13:06:07.456Z,20.83
2022-09-12T13:08:55.079Z,20.19
2022-09-12T13:11:37.620Z,20.58
2022-09-12T13:14:48.027Z,21.11
2022-09-12T13:17:26.615Z,20.01
2022-09-12T13:20:27.316Z,20.04
2022-09-12T13:23:00.662Z,20.38
2022-09-12T13:25:33.011Z,20.86
2022-09-12T13:28:09.604Z,20.22
2022-09-12T13:30:58.634Z,20.14
2022-09-12T13:33:50.051Z,20.11
2022-09-12T13:36:56.017Z,20.05
2022-09-12T13:39:41.850Z,19.65
2022-09-12T13:42:41.060Z,20.67
2022-09-12T13:45:21.239Z,20.27
2022-09-12T13:47:58.681Z,20.71
2022-09-12T13:50:37.739Z,20.38
2022-09-12T13:53:14.983Z,20.22
2022-09-12T13:55:52.044Z,20.34
2022-09-12T13:58:30.314Z,20.67
2022-09-12T14:01:07.647Z,20.39
2022-09-12T14:04:05.052Z,21.10
2022-09-12T14:06:49.738Z,21.06
2022-09-12T14:09:26.233Z,21.02
2022-09-12T14:11:58.624Z,20.17
2022-09-12T14:14:36.531Z,20.56
2022-09-12T14:17:23.652Z,19.75
2022-09-12T14:19:59.750Z,20.92
2022-09-12T14:22:34.345Z,20.86
2022-09-12T14:25:04.087Z,21.31
2022-09-12T14:27:47.754Z,21.17
2022-09-12T14:30:26.307Z,21.33
2022-09-12T14:33:17.935Z,21.43
2022-09-12T14:36:22.811Z,21.38
2022-09-12T14:39:02.083Z,20.66
2022-09-12T14:41:36.188Z,21.37
2022-09-12T14:44:11.286Z,21.15
2022-09-12T14:46:45.852Z,20.27
2022-09-12T14:49:22.595Z,21.20
2022-09-12T14:52:00.136Z,21.01
2022-09-12T14:54:43.813Z,21.05
2022-09-12T14:57:39.479Z,21.10
2022-09-12T15:00:23.331Z,21.04
2022-09-12T15:02:58.097Z,20.98
2022-09-12T15:05:32.364Z,20.40
2022-09-12T15:08:54.726Z,20.18
2022-09-12T15:12:02.168Z,20.56
2022-09-12T15:15:09.935Z,19.55
2022-09-12T15:17:42.525Z,19.56
2022-09-12T15:20:37.565Z,20.79
2022-09-12T15:24:03.363Z,20.69
2022-09-12T15:27:02.141Z,20.60
2022-09-12T15:29:45.362Z,20.53
2022-09-12T15:33:11.221Z,20.47
2022-09-12T15:35:42.304Z,19.85
2022-09-12T15:38:11.153Z,20.40
2022-09-12T15:40:40.101Z,20.18
2022-09-12T15:43:13.975Z,19.57
2022-09-12T15:45:45.524Z,19.53
2022-09-12T15:48:14.537Z,20.02
2022-09-12T15:50:44.222Z,19.95
2022-09-12T15:53:19.967Z,18.54
2022-09-12T15:55:48.920Z,18.95
2022-09-12T15:58:19.092Z,18.31
2022-09-12T16:00:47.992Z,19.91
2022-09-12T16:03:24.872Z,18.65
2022-09-12T16:06:00.744Z,18.24
2022-09-12T16:08:33.912Z,19.55
2022-09-12T16:11:08.911Z,19.14
2022-09-12T16:13:39.548Z,19.21
2022-09-12T16:16:11.003Z,19.00
2022-09-12T16:18:41.957Z,17.76
2022-09-12T16:21:25.551Z,18.70
2022-09-12T16:23:55.984Z,17.71
2022-09-12T16:26:28.094Z,17.73
2022-09-12T16:29:07.469Z,17.73
2022-09-12T16:32:10.205Z,18.39
2022-09-12T16:34:39.032Z,17.52
2022-09-12T16:37:12.222Z,17.79
2022-09-12T16:39:41.379Z,17.80
2022-09-12T16:42:11.030Z,16.85
2022-09-12T16:44:45.384Z,17.20
2022-09-12T16:47:19.138Z,16.65
2022-09-12T16:49:52.647Z,17.79
2022-09-12T16:52:21.498Z,18.20
2022-09-12T16:54:50.353Z,18.09
2022-09-12T16:57:19.469Z,17.96
2022-09-12T16:59:49.719Z,16.10
2022-09-12T17:02:18.521Z,16.67
2022-09-12T17:04:47.311Z,17.43
2022-09-12T17:07:16.073Z,17.50
2022-09-12T17:09:47.885Z,17.37
2022-09-12T17:12:16.809Z,17.03
2022-09-12T17:14:45.509Z,15.41
2022-09-12T17:17:15.765Z,15.93
2022-09-12T17:19:44.648Z,15.85
2022-09-12T17:22:13.368Z,16.80
2022-09-12T17:24:42.152Z,16.54
2022-09-12T17:27:11.043Z,16.41
2022-09-12T17:29:39.923Z,15.08
2022-09-12T17:32:08.675Z,16.25
2022-09-12T17:34:38.787Z,16.39
2022-09-12T17:37:07.506Z,15.24
2022-09-12T17:39:37.610Z,15.42
2022-09-12T17:42:08.263Z,16.19
2022-09-12T17:44:37.624Z,15.55
2022-09-12T17:47:07.288Z,16.05
2022-09-12T17:49:38.205Z,15.43
2022-09-12T17:52:07.494Z,15.94
2022-09-12T17:54:36.454Z,14.11
2022-09-12T17:57:07.490Z,15.82
2022-09-12T17:59:36.312Z,14.93
2022-09-12T18:02:13.722Z,15.75
2022-09-12T18:04:47.032Z,15.26
2022-09-12T18:07:18.290Z,15.59
2022-09-12T18:09:48.491Z,15.53
2022-09-12T18:12:18.121Z,15.46
2022-09-12T18:14:46.922Z,13.97
2022-09-12T18:17:15.763Z,15.33
2022-09-12T18:19:53.765Z,15.17
2022-09-12T18:22:22.825Z,15.08
2022-09-12T18:24:51.667Z,15.24
2022-09-12T18:27:21.025Z,15.21
2022-09-12T18:30:10.317Z,15.15
2022-09-12T18:32:39.220Z,15.09
2022-09-12T18:35:10.892Z,13.71
2022-09-12T18:37:41.640Z,13.26
2022-09-12T18:40:11.692Z,14.27
2022-09-12T18:42:43.206Z,13.58
2022-09-12T18:45:12.907Z,14.93
2022-09-12T18:47:42.044Z,14.88
2022-09-12T18:50:12.458Z,14.83
2022-09-12T18:52:41.220Z,13.64
2022-09-12T18:55:11.517Z,14.02
2022-09-12T18:57:42.124Z,12.70
2022-09-12T19:00:13.477Z,14.69
2022-09-12T19:02:42.209Z,14.64
2022-09-12T19:05:13.672Z,14.53
2022-09-12T19:07:42.432Z,13.68
2022-09-12T19:10:12.213Z,14.50
2022-09-12T19:12:41.623Z,14.32
2022-09-12T19:15:11.397Z,14.42
2022-09-12T19:17:40.026Z,14.11
2022-09-12T19:20:09.648Z,13.99
2022-09-12T19:22:39.775Z,14.35
2022-09-12T19:25:09.908Z,14.11
2022-09-12T19:27:38.506Z,14.25
2022-09-12T19:30:08.766Z,14.19
2022-09-12T19:32:42.827Z,13.84
2022-09-12T19:35:18.487Z,13.58
2022-09-12T19:37:48.719Z,13.97
2022-09-12T19:40:18.236Z,13.99
2022-09-12T19:42:46.917Z,13.96
2022-09-12T19:45:16.297Z,13.45
2022-09-12T19:47:45.598Z,13.85
2022-09-12T19:50:14.493Z,13.46
2022-09-12T19:52:43.549Z,13.32
2022-09-12T19:55:13.783Z,13.67
2022-09-12T19:57:43.013Z,13.27
2022-09-12T20:00:13.761Z,12.82
2022-09-12T20:02:59.233Z,12.73
2022-09-12T20:05:28.798Z,13.72
2022-09-12T20:08:01.184Z,13.69
2022-09-12T20:10:31.343Z,12.75
2022-09-12T20:13:00.195Z,13.48
2022-09-12T20:15:29.247Z,12.38
2022-09-12T20:17:58.404Z,13.32
2022-09-12T20:20:27.248Z,12.97
2022-09-12T20:22:56.108Z,12.83
2022-09-12T20:25:24.661Z,13.06
2022-09-12T20:27:59.442Z,12.95
2022-09-12T20:30:29.369Z,12.77
2022-09-12T20:32:58.123Z,13.06
2022-09-12T20:35:26.757Z,12.91
2022-09-12T20:37:55.526Z,12.32
2022-09-12T20:40:24.533Z,12.70
2022-09-12T20:42:54.916Z,11.93
2022-09-12T20:45:23.600Z,11.43
2022-09-12T20:47:52.350Z,12.82
2022-09-12T20:50:21.389Z,12.77
2022-09-12T20:52:50.005Z,12.20
2022-09-12T20:55:18.753Z,12.68
2022-09-12T20:57:50.500Z,12.71
2022-09-12T21:00:20.838Z,12.33
2022-09-12T21:02:50.867Z,12.30
2022-09-12T21:05:19.624Z,12.00
2022-09-12T21:07:48.144Z,12.64
2022-09-12T21:10:16.964Z,11.06
2022-09-12T21:12:45.559Z,11.76
2022-09-12T21:15:14.536Z,12.58
2022-09-12T21:17:44.745Z,11.79
2022-09-12T21:20:16.191Z,11.59
2022-09-12T21:22:45.478Z,12.52
2022-09-12T21:25:14.512Z,12.50
2022-09-12T21:27:53.749Z,12.48
2022-09-12T21:30:25.185Z,10.63
2022-09-12T21:32:55.264Z,12.49
2022-09-12T21:35:24.139Z,12.45
2022-09-12T21:37:53.842Z,12.11
2022-09-12T21:40:22.563Z,12.42
2022-09-12T21:42:51.389Z,12.11
2022-09-12T21:45:22.089Z,12.50
2022-09-12T21:47:51.016Z,12.28
2022-09-12T21:50:23.464Z,11.93
2022-09-12T21:52:54.214Z,10.64
2022-09-12T21:55:27.172Z,12.41
2022-09-12T21:58:00.484Z,12.29
2022-09-12T22:00:29.189Z,12.35
2022-09-12T22:02:58.088Z,12.00
2022-09-12T22:05:31.741Z,11.68
2022-09-12T22:08:00.990Z,12.31
2022-09-12T22:10:31.554Z,12.27
2022-09-12T22:13:09.417Z,12.26
2022-09-12T22:15:40.921Z,12.24
2022-09-12T22:18:15.555Z,12.21
2022-09-12T22:21:01.400Z,10.20
2022-09-12T22:23:50.143Z,11.47
2022-09-12T22:26:21.157Z,12.16
2022-09-12T22:29:01.171Z,12.13
2022-09-12T22:31:29.933Z,12.09
2022-09-12T22:33:59.057Z,11.33
2022-09-12T22:36:34.084Z,11.63
2022-09-12T22:39:11.640Z,12.08
2022-09-12T22:41:40.738Z,12.06
2022-09-12T22:44:12.223Z,12.02
2022-09-12T22:46:41.569Z,12.02
2022-09-12T22:49:10.414Z,11.86
2022-09-12T22:51:41.105Z,12.02
2022-09-12T22:54:14.634Z,11.40
2022-09-12T22:56:43.666Z,11.97
2022-09-12T22:59:12.204Z,11.91
2022-09-12T23:01:41.160Z,11.57
2022-09-12T23:04:09.978Z,11.93
2022-09-12T23:06:42.575Z,10.37
2022-09-12T23:09:11.585Z,11.90
2022-09-12T23:11:40.416Z,11.23
2022-09-12T23:14:09.063Z,11.46
2022-09-12T23:16:37.839Z,11.92
2022-09-12T23:19:06.712Z,11.92
2022-09-12T23:21:35.321Z,11.94
2022-09-12T23:24:05.826Z,11.03
2022-09-12T23:26:37.005Z,11.90
2022-09-12T23:29:06.951Z,11.30
2022-09-12T23:31:35.886Z,11.84
2022-09-12T23:34:19.223Z,11.84
2022-09-12T23:36:47.958Z,11.84
2022-09-12T23:39:18.062Z,11.62
2022-09-12T23:41:46.634Z,11.78
2022-09-12T23:44:17.095Z,11.75
2022-09-12T23:46:46.052Z,11.74
2022-09-12T23:49:14.689Z,11.40
2022-09-12T23:51:43.306Z,11.74
2022-09-12T23:54:11.925Z,11.75
2022-09-12T23:56:42.106Z,11.75
2022-09-12T23:59:13.802Z,11.77
